createdAt,value
2022-10-13T00:00:27.112Z,10.11
2022-10-13T00:00:59.231Z,10.11
2022-10-13T00:01:31.369Z,10.11
2022-10-13T00:02:03.338Z,10.11
2022-10-13T00:02:34.296Z,10.11
2022-10-13T00:03:07.125Z,10.11
2022-10-13T00:03:34.522Z,10.11
2022-10-13T00:03:55.067Z,10.11
2022-10-13T00:04:26.911Z,10.11
2022-10-13T00:04:59.075Z,10.11
2022-10-13T00:05:31.295Z,10.11
2022-10-13T00:06:03.515Z,10.11
2022-10-13T00:06:34.191Z,10.11
2022-10-13T00:07:06.305Z,10.11
2022-10-13T00:07:38.443Z,10.11
2022-10-13T00:07:55.071Z,10.11
2022-10-13T00:08:32.257Z,10.11
2022-10-13T00:08:59.049Z,10.11
2022-10-13T00:09:31.381Z,10.11
2022-10-13T00:10:03.447Z,10.11
2022-10-13T00:10:34.225Z,10.11
2022-10-13T00:11:07.187Z,10.11
2022-10-13T00:11:34.087Z,10.11
2022-10-13T00:11:55.111Z,10.11
2022-10-13T00:12:27.101Z,10.11
2022-10-13T00:12:59.009Z,10.11
2022-10-13T00:13:31.275Z,10.11
2022-10-13T00:14:08.472Z,10.11
2022-10-13T00:14:34.216Z,10.11
2022-10-13T00:15:07.153Z,10.00
2022-10-13T00:15:34.198Z,10.00
2022-10-13T00:15:55.239Z,10.00
2022-10-13T00:16:27.198Z,10.00
2022-10-13T00:16:59.368Z,10.00
2022-10-13T00:17:31.310Z,10.00
2022-10-13T00:18:03.439Z,10.00
2022-10-13T00:18:34.411Z,10.00
2022-10-13T00:18:51.123Z,10.00
2022-10-13T00:19:23.054Z,10.00
2022-10-13T00:19:40.648Z,9.88
2022-10-13T00:20:11.295Z,9.88
2022-10-13T00:20:34.714Z,9.88
2022-10-13T00:20:59.074Z,9.88
2022-10-13T00:21:31.378Z,9.88
2022-10-13T00:22:03.482Z,9.88
2022-10-13T00:22:34.187Z,9.88
2022-10-13T00:23:07.111Z,9.88
2022-10-13T00:23:34.313Z,9.88
2022-10-13T00:23:55.050Z,10.11
2022-10-13T00:24:27.147Z,9.88
2022-10-13T00:24:59.122Z,9.88
2022-10-13T00:25:31.679Z,9.88
2022-10-13T00:26:03.434Z,10.11
2022-10-13T00:26:34.290Z,9.88
2022-10-13T00:26:51.233Z,10.11
2022-10-13T00:27:23.081Z,10.22
2022-10-13T00:27:40.760Z,10.00
2022-10-13T00:28:11.431Z,10.22
2022-10-13T00:28:34.290Z,10.00
2022-10-13T00:28:58.948Z,10.22
2022-10-13T00:29:31.429Z,10.22
2022-10-13T00:30:03.431Z,10.22
2022-10-13T00:30:34.877Z,10.11
2022-10-13T00:31:07.067Z,10.11
2022-10-13T00:31:34.261Z,10.11
2022-10-13T00:31:55.110Z,10.27
2022-10-13T00:32:26.907Z,10.22
2022-10-13T00:32:59.172Z,10.22
2022-10-13T00:33:31.307Z,10.00
2022-10-13T00:34:03.415Z,10.22
2022-10-13T00:34:34.320Z,10.22
2022-10-13T00:35:07.127Z,10.22
2022-10-13T00:35:34.384Z,10.00
2022-10-13T00:35:55.705Z,10.00
2022-10-13T00:36:32.166Z,10.22
2022-10-13T00:36:59.024Z,10.22
2022-10-13T00:37:31.536Z,10.22
2022-10-13T00:38:03.381Z,10.22
2022-10-13T00:38:34.232Z,10.00
2022-10-13T00:39:07.075Z,10.22
2022-10-13T00:39:34.488Z,10.22
2022-10-13T00:39:55.093Z,10.22
2022-10-13T00:40:27.076Z,10.22
2022-10-13T00:40:59.607Z,10.22
2022-10-13T00:41:31.363Z,10.27
2022-10-13T00:42:08.411Z,10.27
2022-10-13T00:42:34.229Z,10.27
2022-10-13T00:43:07.235Z,10.27
2022-10-13T00:43:34.395Z,10.27
2022-10-13T00:43:55.077Z,10.27
2022-10-13T00:44:32.081Z,10.27
2022-10-13T00:44:59.053Z,10.27
2022-10-13T00:45:31.498Z,10.27
2022-10-13T00:46:03.925Z,10.27
2022-10-13T00:46:34.228Z,10.11
2022-10-13T00:47:07.066Z,10.11
2022-10-13T00:47:34.447Z,10.00
2022-10-13T00:47:55.056Z,9.77
2022-10-13T00:48:27.063Z,9.61
2022-10-13T00:48:59.079Z,9.50
2022-10-13T00:49:31.267Z,9.38
2022-10-13T00:50:03.398Z,9.50
2022-10-13T00:50:34.206Z,9.50
2022-10-13T00:51:07.829Z,9.38
2022-10-13T00:51:34.320Z,9.38
2022-10-13T00:51:55.022Z,9.38
2022-10-13T00:52:27.087Z,9.38
2022-10-13T00:52:59.103Z,9.50
2022-10-13T00:53:31.281Z,9.50
2022-10-13T00:54:03.620Z,9.50
2022-10-13T00:54:34.281Z,9.50
2022-10-13T00:55:06.438Z,9.38
2022-10-13T00:55:22.954Z,9.38
2022-10-13T00:55:40.035Z,9.38
2022-10-13T00:56:11.810Z,9.38
2022-10-13T00:56:34.314Z,9.27
2022-10-13T00:56:59.013Z,9.27
2022-10-13T00:57:31.375Z,9.27
2022-10-13T00:58:05.432Z,9.27
2022-10-13T00:58:34.199Z,9.27
2022-10-13T00:58:56.483Z,9.27
2022-10-13T00:59:23.201Z,9.27
2022-10-13T00:59:40.341Z,9.27
2022-10-13T01:00:11.810Z,9.27
2022-10-13T01:00:34.280Z,9.27
2022-10-13T01:00:59.212Z,9.27
2022-10-13T01:01:31.401Z,9.27
2022-10-13T01:02:03.446Z,9.38
2022-10-13T01:02:34.331Z,9.38
2022-10-13T01:03:07.289Z,9.38
2022-10-13T01:03:34.449Z,9.38
2022-10-13T01:03:55.215Z,9.38
2022-10-13T01:04:27.266Z,9.38
2022-10-13T01:04:59.084Z,9.27
2022-10-13T01:05:31.295Z,9.27
2022-10-13T01:06:03.474Z,9.27
2022-10-13T01:06:34.393Z,9.27
2022-10-13T01:06:51.311Z,9.27
2022-10-13T01:07:23.049Z,9.27
2022-10-13T01:07:40.326Z,9.27
2022-10-13T01:08:11.443Z,9.27
2022-10-13T01:08:34.266Z,9.22
2022-10-13T01:08:59.009Z,9.22
2022-10-13T01:09:31.454Z,9.22
2022-10-13T01:10:03.470Z,9.22
2022-10-13T01:10:34.382Z,9.27
2022-10-13T01:10:51.263Z,9.27
2022-10-13T01:11:23.923Z,9.27
2022-10-13T01:11:41.213Z,9.27
2022-10-13T01:12:11.295Z,9.27
2022-10-13T01:12:34.233Z,9.27
2022-10-13T01:12:59.043Z,9.27
2022-10-13T01:13:31.358Z,9.27
2022-10-13T01:14:03.356Z,9.27
2022-10-13T01:14:34.261Z,9.27
2022-10-13T01:14:51.204Z,9.27
2022-10-13T01:15:23.075Z,9.27
2022-10-13T01:15:40.611Z,9.27
2022-10-13T01:16:11.375Z,9.27
2022-10-13T01:16:34.310Z,9.27
2022-10-13T01:17:00.046Z,9.27
2022-10-13T01:17:31.363Z,9.27
2022-10-13T01:18:03.383Z,9.27
2022-10-13T01:18:34.271Z,9.27
2022-10-13T01:19:07.018Z,9.27
2022-10-13T01:19:34.357Z,9.27
2022-10-13T01:19:55.036Z,9.27
2022-10-13T01:20:27.278Z,9.27
2022-10-13T01:20:59.073Z,9.38
2022-10-13T01:21:31.758Z,9.38
2022-10-13T01:22:03.487Z,9.38
2022-10-13T01:22:34.300Z,9.38
2022-10-13T01:23:07.043Z,9.50
2022-10-13T01:23:34.349Z,9.50
2022-10-13T01:23:55.011Z,9.50
2022-10-13T01:24:27.047Z,9.50
2022-10-13T01:24:59.077Z,9.50
2022-10-13T01:25:31.347Z,9.50
2022-10-13T01:26:03.380Z,9.50
2022-10-13T01:26:35.764Z,9.50
2022-10-13T01:27:07.458Z,9.50
2022-10-13T01:27:39.299Z,9.50
2022-10-13T01:28:00.133Z,9.50
2022-10-13T01:28:27.109Z,9.61
2022-10-13T01:28:59.026Z,9.61
2022-10-13T01:29:31.281Z,9.61
2022-10-13T01:30:03.482Z,9.61
2022-10-13T01:30:34.242Z,9.61
2022-10-13T01:31:07.109Z,9.77
2022-10-13T01:31:34.388Z,9.77
2022-10-13T01:31:55.038Z,9.77
2022-10-13T01:32:26.989Z,9.77
2022-10-13T01:32:59.065Z,9.88
2022-10-13T01:33:31.323Z,9.88
2022-10-13T01:34:03.353Z,9.88
2022-10-13T01:34:35.567Z,9.88
2022-10-13T01:35:07.067Z,10.00
2022-10-13T01:35:34.521Z,10.00
2022-10-13T01:35:55.040Z,10.00
2022-10-13T01:36:27.034Z,10.00
2022-10-13T01:36:59.631Z,10.00
2022-10-13T01:37:31.349Z,10.00
2022-10-13T01:38:08.406Z,10.00
2022-10-13T01:38:34.415Z,10.00
2022-10-13T01:38:51.284Z,10.00
2022-10-13T01:39:23.013Z,10.00
2022-10-13T01:39:40.940Z,10.00
2022-10-13T01:40:11.695Z,10.00
2022-10-13T01:40:34.428Z,10.00
2022-10-13T01:40:58.970Z,10.00
2022-10-13T01:41:31.409Z,10.00
2022-10-13T01:42:03.992Z,10.11
2022-10-13T01:42:34.266Z,10.11
2022-10-13T01:42:51.572Z,10.11
2022-10-13T01:43:23.076Z,10.11
2022-10-13T01:43:45.336Z,10.11
2022-10-13T01:44:11.400Z,10.11
2022-10-13T01:44:34.518Z,10.11
2022-10-13T01:44:59.009Z,10.11
2022-10-13T01:45:31.468Z,10.11
2022-10-13T01:46:03.431Z,10.00
2022-10-13T01:46:34.266Z,10.00
2022-10-13T01:46:51.389Z,10.00
2022-10-13T01:47:23.044Z,10.00
2022-10-13T01:47:40.227Z,10.00
2022-10-13T01:48:11.448Z,10.00
2022-10-13T01:48:39.347Z,10.00
2022-10-13T01:48:59.026Z,9.88
2022-10-13T01:49:31.374Z,9.88
2022-10-13T01:50:03.393Z,9.77
2022-10-13T01:50:34.300Z,9.77
2022-10-13T01:51:07.037Z,9.72
2022-10-13T01:51:34.276Z,9.72
2022-10-13T01:51:55.038Z,9.72
2022-10-13T01:52:27.033Z,9.72
2022-10-13T01:52:59.026Z,9.72
2022-10-13T01:53:31.351Z,9.72
2022-10-13T01:54:03.367Z,9.72
2022-10-13T01:54:34.271Z,9.72
2022-10-13T01:55:07.087Z,9.77
2022-10-13T01:55:39.332Z,9.77
2022-10-13T01:55:56.203Z,9.88
2022-10-13T01:56:27.135Z,9.88
2022-10-13T01:56:59.072Z,9.88
2022-10-13T01:57:31.465Z,9.88
2022-10-13T01:58:03.332Z,9.88
2022-10-13T01:58:35.093Z,9.88
2022-10-13T01:59:07.073Z,9.88
2022-10-13T01:59:34.214Z,10.00
2022-10-13T01:59:54.986Z,10.00
2022-10-13T02:00:27.194Z,10.00
2022-10-13T02:00:59.116Z,10.00
2022-10-13T02:01:31.489Z,10.11
2022-10-13T02:02:03.388Z,10.11
2022-10-13T02:02:39.421Z,10.11
2022-10-13T02:02:51.634Z,10.11
2022-10-13T02:03:23.223Z,10.11
2022-10-13T02:03:40.300Z,10.11
2022-10-13T02:04:11.357Z,10.11
2022-10-13T02:04:34.343Z,10.11
2022-10-13T02:04:59.034Z,10.11
2022-10-13T02:05:31.483Z,10.11
2022-10-13T02:06:03.348Z,10.11
2022-10-13T02:06:35.007Z,10.11
2022-10-13T02:07:12.096Z,10.00
2022-10-13T02:07:34.261Z,10.00
2022-10-13T02:07:55.031Z,10.00
2022-10-13T02:08:27.021Z,9.88
2022-10-13T02:08:59.014Z,9.88
2022-10-13T02:09:31.483Z,9.88
2022-10-13T02:10:03.365Z,9.88
2022-10-13T02:10:34.304Z,9.88
2022-10-13T02:10:51.352Z,10.00
2022-10-13T02:11:23.021Z,10.00
2022-10-13T02:11:45.288Z,10.00
2022-10-13T02:12:11.482Z,10.00
2022-10-13T02:12:34.261Z,10.00
2022-10-13T02:12:58.980Z,10.00
2022-10-13T02:13:31.480Z,10.00
2022-10-13T02:14:03.339Z,10.00
2022-10-13T02:14:34.278Z,10.00
2022-10-13T02:14:51.388Z,10.00
2022-10-13T02:15:24.531Z,10.00
2022-10-13T02:15:40.299Z,10.00
2022-10-13T02:16:11.526Z,10.00
2022-10-13T02:16:39.398Z,10.00
2022-10-13T02:16:59.012Z,10.00
2022-10-13T02:17:32.514Z,10.00
2022-10-13T02:18:03.450Z,10.11
2022-10-13T02:18:34.398Z,10.11
2022-10-13T02:19:06.377Z,10.11
2022-10-13T02:19:22.861Z,10.11
2022-10-13T02:19:39.925Z,10.11
2022-10-13T02:20:11.481Z,10.11
2022-10-13T02:20:34.295Z,10.11
2022-10-13T02:20:59.016Z,10.11
2022-10-13T02:21:31.545Z,10.11
2022-10-13T02:22:03.385Z,10.11
2022-10-13T02:22:36.219Z,10.11
2022-10-13T02:23:07.045Z,10.11
2022-10-13T02:23:39.325Z,10.11
2022-10-13T02:24:00.088Z,10.11
2022-10-13T02:24:27.011Z,10.11
2022-10-13T02:24:59.047Z,10.11
2022-10-13T02:25:31.343Z,10.11
2022-10-13T02:26:03.399Z,10.11
2022-10-13T02:26:34.296Z,10.11
2022-10-13T02:26:51.328Z,10.11
2022-10-13T02:27:23.102Z,10.11
2022-10-13T02:27:40.993Z,10.11
2022-10-13T02:28:11.401Z,10.11
2022-10-13T02:28:34.385Z,10.11
2022-10-13T02:28:58.987Z,10.22
2022-10-13T02:29:36.428Z,10.22
2022-10-13T02:30:03.467Z,10.22
2022-10-13T02:30:39.351Z,10.22
2022-10-13T02:30:51.373Z,10.22
2022-10-13T02:31:23.029Z,10.22
2022-10-13T02:31:40.397Z,10.22
2022-10-13T02:32:11.469Z,10.22
2022-10-13T02:32:34.257Z,10.22
2022-10-13T02:32:59.005Z,10.22
2022-10-13T02:33:31.482Z,10.22
2022-10-13T02:34:03.379Z,10.22
2022-10-13T02:34:34.597Z,10.22
2022-10-13T02:34:51.339Z,10.22
2022-10-13T02:35:23.086Z,10.22
2022-10-13T02:35:40.336Z,10.22
2022-10-13T02:36:11.343Z,10.11
2022-10-13T02:36:34.300Z,10.11
2022-10-13T02:36:59.022Z,10.11
2022-10-13T02:37:31.309Z,10.00
2022-10-13T02:38:03.728Z,10.00
2022-10-13T02:38:34.266Z,10.00
2022-10-13T02:38:51.364Z,9.88
2022-10-13T02:39:23.014Z,9.88
2022-10-13T02:39:45.352Z,9.88
2022-10-13T02:40:11.602Z,9.77
2022-10-13T02:40:34.448Z,9.77
2022-10-13T02:40:59.119Z,9.77
2022-10-13T02:41:31.459Z,9.72
2022-10-13T02:42:03.482Z,9.72
2022-10-13T02:42:34.303Z,9.72
2022-10-13T02:42:51.337Z,9.72
2022-10-13T02:43:23.178Z,9.72
2022-10-13T02:43:40.446Z,9.61
2022-10-13T02:44:11.542Z,9.61
2022-10-13T02:44:39.327Z,9.61
2022-10-13T02:44:58.979Z,9.61
2022-10-13T02:45:31.407Z,9.50
2022-10-13T02:46:03.388Z,9.50
2022-10-13T02:46:34.386Z,9.50
2022-10-13T02:46:51.359Z,9.50
2022-10-13T02:47:23.065Z,9.50
2022-10-13T02:47:40.339Z,9.50
2022-10-13T02:48:11.963Z,9.50
2022-10-13T02:48:34.436Z,9.50
2022-10-13T02:48:59.073Z,9.50
2022-10-13T02:49:31.435Z,9.50
2022-10-13T02:50:03.456Z,9.61
2022-10-13T02:50:34.638Z,9.61
2022-10-13T02:50:51.345Z,9.61
2022-10-13T02:51:23.113Z,9.61
2022-10-13T02:51:40.690Z,9.72
2022-10-13T02:52:11.308Z,9.72
2022-10-13T02:52:34.296Z,9.72
2022-10-13T02:52:58.972Z,9.72
2022-10-13T02:53:31.388Z,9.77
2022-10-13T02:54:03.613Z,9.77
2022-10-13T02:54:34.401Z,9.77
2022-10-13T02:54:51.338Z,9.77
2022-10-13T02:55:22.989Z,9.77
2022-10-13T02:55:40.126Z,9.72
2022-10-13T02:56:11.462Z,9.72
2022-10-13T02:56:34.289Z,9.72
2022-10-13T02:56:59.033Z,9.72
2022-10-13T02:57:36.321Z,9.72
2022-10-13T02:58:03.688Z,9.72
2022-10-13T02:58:39.410Z,9.72
2022-10-13T02:58:51.322Z,9.72
2022-10-13T02:59:23.106Z,9.61
2022-10-13T02:59:40.122Z,9.61
2022-10-13T03:00:11.915Z,9.61
2022-10-13T03:00:34.393Z,9.61
2022-10-13T03:00:59.025Z,9.61
2022-10-13T03:01:31.278Z,9.61
2022-10-13T03:02:03.246Z,9.61
2022-10-13T03:02:34.349Z,9.61
2022-10-13T03:02:51.356Z,9.61
2022-10-13T03:03:23.674Z,9.61
2022-10-13T03:03:41.109Z,9.61
2022-10-13T03:04:11.353Z,9.50
2022-10-13T03:04:34.333Z,9.50
2022-10-13T03:04:59.003Z,9.38
2022-10-13T03:05:31.462Z,9.38
2022-10-13T03:06:03.340Z,9.27
2022-10-13T03:06:34.496Z,9.27
2022-10-13T03:06:51.362Z,9.27
2022-10-13T03:07:22.997Z,9.27
2022-10-13T03:07:45.205Z,9.27
2022-10-13T03:08:11.322Z,9.27
2022-10-13T03:08:34.312Z,9.27
2022-10-13T03:08:59.010Z,9.27
2022-10-13T03:09:31.330Z,9.27
2022-10-13T03:10:03.299Z,9.27
2022-10-13T03:10:34.479Z,9.27
2022-10-13T03:10:51.465Z,9.27
2022-10-13T03:11:23.031Z,9.27
2022-10-13T03:11:40.168Z,9.27
2022-10-13T03:12:11.267Z,9.27
2022-10-13T03:12:39.297Z,9.27
2022-10-13T03:12:59.027Z,9.27
2022-10-13T03:13:31.964Z,9.27
2022-10-13T03:14:03.266Z,9.27
2022-10-13T03:14:34.370Z,9.27
2022-10-13T03:14:51.344Z,9.27
2022-10-13T03:15:23.273Z,9.27
2022-10-13T03:15:40.147Z,9.27
2022-10-13T03:16:11.336Z,9.27
2022-10-13T03:16:34.311Z,9.27
2022-10-13T03:16:58.986Z,9.27
2022-10-13T03:17:31.345Z,9.27
2022-10-13T03:18:03.394Z,9.27
2022-10-13T03:18:35.000Z,9.27
2022-10-13T03:19:07.055Z,9.27
2022-10-13T03:19:39.360Z,9.27
2022-10-13T03:20:00.085Z,9.27
2022-10-13T03:20:27.018Z,9.22
2022-10-13T03:20:59.033Z,9.22
2022-10-13T03:21:31.382Z,9.22
2022-10-13T03:22:03.458Z,9.22
2022-10-13T03:22:34.196Z,9.22
2022-10-13T03:22:51.445Z,9.22
2022-10-13T03:23:22.984Z,9.22
2022-10-13T03:23:41.739Z,9.22
2022-10-13T03:24:11.496Z,9.11
2022-10-13T03:24:34.322Z,9.11
2022-10-13T03:24:58.949Z,9.11
2022-10-13T03:25:36.312Z,9.11
2022-10-13T03:26:03.412Z,9.11
2022-10-13T03:26:39.380Z,9.11
2022-10-13T03:27:06.827Z,9.11
2022-10-13T03:27:22.844Z,9.22
2022-10-13T03:27:39.967Z,9.22
2022-10-13T03:28:11.413Z,9.22
2022-10-13T03:28:34.409Z,9.22
2022-10-13T03:28:59.013Z,9.22
2022-10-13T03:29:31.334Z,9.22
2022-10-13T03:30:03.469Z,9.22
2022-10-13T03:30:34.560Z,9.22
2022-10-13T03:31:06.518Z,9.11
2022-10-13T03:31:22.964Z,9.11
2022-10-13T03:31:40.085Z,9.11
2022-10-13T03:32:11.336Z,9.11
2022-10-13T03:32:34.257Z,9.11
2022-10-13T03:32:59.119Z,9.11
2022-10-13T03:33:31.405Z,9.11
2022-10-13T03:34:03.987Z,9.00
2022-10-13T03:34:34.459Z,9.00
2022-10-13T03:34:51.330Z,9.00
2022-10-13T03:35:23.006Z,9.00
2022-10-13T03:35:45.289Z,9.00
2022-10-13T03:36:11.289Z,9.00
2022-10-13T03:36:34.560Z,9.00
2022-10-13T03:36:59.016Z,9.00
2022-10-13T03:37:31.355Z,9.00
2022-10-13T03:38:03.312Z,9.00
2022-10-13T03:38:34.598Z,9.00
2022-10-13T03:38:51.122Z,9.00
2022-10-13T03:39:23.057Z,9.00
2022-10-13T03:39:40.122Z,9.00
2022-10-13T03:40:11.342Z,9.00
2022-10-13T03:40:39.521Z,9.00
2022-10-13T03:40:59.116Z,9.00
2022-10-13T03:41:31.448Z,9.00
2022-10-13T03:42:03.314Z,9.11
2022-10-13T03:42:34.449Z,9.11
2022-10-13T03:42:51.116Z,9.11
2022-10-13T03:43:28.114Z,9.11
2022-10-13T03:43:42.243Z,9.11
2022-10-13T03:44:11.811Z,9.11
2022-10-13T03:44:34.349Z,9.11
2022-10-13T03:44:59.093Z,9.22
2022-10-13T03:45:31.286Z,9.22
2022-10-13T03:46:03.252Z,9.22
2022-10-13T03:46:34.339Z,9.11
2022-10-13T03:46:51.382Z,9.11
2022-10-13T03:47:22.987Z,9.22
2022-10-13T03:47:40.165Z,9.22
2022-10-13T03:48:11.351Z,9.22
2022-10-13T03:48:34.326Z,9.22
2022-10-13T03:49:03.925Z,9.11
2022-10-13T03:49:31.319Z,9.11
2022-10-13T03:50:03.278Z,9.22
2022-10-13T03:50:34.352Z,9.11
2022-10-13T03:50:51.379Z,9.11
2022-10-13T03:51:22.997Z,9.11
2022-10-13T03:51:40.182Z,9.11
2022-10-13T03:52:11.338Z,9.11
2022-10-13T03:52:34.501Z,9.11
2022-10-13T03:52:58.984Z,9.11
2022-10-13T03:53:36.349Z,9.11
2022-10-13T03:54:03.523Z,9.11
2022-10-13T03:54:39.334Z,9.11
2022-10-13T03:54:51.355Z,9.11
2022-10-13T03:55:22.965Z,9.11
2022-10-13T03:55:40.101Z,9.11
2022-10-13T03:56:11.223Z,9.11
2022-10-13T03:56:34.272Z,9.11
2022-10-13T03:56:58.956Z,9.11
2022-10-13T03:57:31.199Z,9.11
2022-10-13T03:58:03.462Z,9.11
2022-10-13T03:58:34.367Z,9.11
2022-10-13T03:58:51.342Z,9.11
2022-10-13T03:59:23.628Z,9.22
2022-10-13T03:59:40.954Z,9.22
2022-10-13T04:00:11.819Z,9.22
2022-10-13T04:00:34.310Z,9.22
2022-10-13T04:00:59.221Z,9.22
2022-10-13T04:01:31.516Z,9.27
2022-10-13T04:02:03.496Z,9.27
2022-10-13T04:02:34.522Z,9.27
2022-10-13T04:02:51.100Z,9.38
2022-10-13T04:03:22.977Z,9.38
2022-10-13T04:03:40.114Z,9.38
2022-10-13T04:04:11.855Z,9.38
2022-10-13T04:04:34.802Z,9.38
2022-10-13T04:04:59.088Z,9.38
2022-10-13T04:05:31.487Z,9.27
2022-10-13T04:06:03.146Z,9.27
2022-10-13T04:06:34.785Z,9.27
2022-10-13T04:07:07.145Z,9.22
2022-10-13T04:07:34.782Z,9.22
2022-10-13T04:07:54.942Z,9.22
2022-10-13T04:08:27.026Z,9.22
2022-10-13T04:08:58.970Z,9.22
2022-10-13T04:09:32.111Z,9.22
2022-10-13T04:10:03.317Z,9.27
2022-10-13T04:10:34.362Z,9.27
2022-10-13T04:10:51.383Z,9.27
2022-10-13T04:11:28.085Z,9.27
2022-10-13T04:11:40.148Z,9.27
2022-10-13T04:12:11.243Z,9.27
2022-10-13T04:12:34.310Z,9.27
2022-10-13T04:12:59.033Z,9.27
2022-10-13T04:13:31.232Z,9.27
2022-10-13T04:14:03.380Z,9.38
2022-10-13T04:14:34.882Z,9.38
2022-10-13T04:15:07.116Z,9.38
2022-10-13T04:15:34.342Z,9.38
2022-10-13T04:15:54.991Z,9.38
2022-10-13T04:16:26.983Z,9.38
2022-10-13T04:17:04.110Z,9.38
2022-10-13T04:17:31.634Z,9.50
2022-10-13T04:18:03.408Z,9.50
2022-10-13T04:18:34.334Z,9.61
2022-10-13T04:19:06.483Z,9.61
2022-10-13T04:19:22.877Z,9.61
2022-10-13T04:19:42.521Z,9.61
2022-10-13T04:20:11.254Z,9.61
2022-10-13T04:20:34.355Z,9.72
2022-10-13T04:20:58.943Z,9.72
2022-10-13T04:21:36.501Z,9.72
2022-10-13T04:22:03.419Z,9.72
2022-10-13T04:22:39.488Z,9.72
2022-10-13T04:23:06.392Z,9.72
2022-10-13T04:23:22.889Z,9.72
2022-10-13T04:23:40.045Z,9.72
2022-10-13T04:24:11.344Z,9.72
2022-10-13T04:24:34.489Z,9.72
2022-10-13T04:24:58.951Z,9.72
2022-10-13T04:25:31.253Z,9.72
2022-10-13T04:26:03.096Z,9.72
2022-10-13T04:26:34.363Z,9.72
2022-10-13T04:27:06.583Z,9.72
2022-10-13T04:27:22.854Z,9.72
2022-10-13T04:27:39.996Z,9.72
2022-10-13T04:28:11.461Z,9.72
2022-10-13T04:28:34.390Z,9.72
2022-10-13T04:28:59.132Z,9.72
2022-10-13T04:29:31.328Z,9.72
2022-10-13T04:30:04.036Z,9.72
2022-10-13T04:30:34.305Z,9.72
2022-10-13T04:30:51.377Z,9.72
2022-10-13T04:31:23.200Z,9.72
2022-10-13T04:31:40.104Z,9.72
2022-10-13T04:32:11.242Z,9.72
2022-10-13T04:32:34.263Z,9.72
2022-10-13T04:32:58.960Z,9.72
2022-10-13T04:33:31.263Z,9.61
2022-10-13T04:34:03.351Z,9.61
2022-10-13T04:34:34.307Z,9.61
2022-10-13T04:34:51.506Z,9.61
2022-10-13T04:35:23.032Z,9.72
2022-10-13T04:35:40.342Z,9.72
2022-10-13T04:36:11.390Z,9.72
2022-10-13T04:36:34.450Z,9.72
2022-10-13T04:36:59.232Z,9.72
2022-10-13T04:37:31.261Z,9.72
2022-10-13T04:38:03.416Z,9.77
2022-10-13T04:38:34.332Z,9.77
2022-10-13T04:39:06.451Z,9.77
2022-10-13T04:39:27.932Z,9.77
2022-10-13T04:39:40.268Z,9.77
2022-10-13T04:40:12.963Z,9.77
2022-10-13T04:40:34.347Z,9.77
2022-10-13T04:40:59.017Z,9.77
2022-10-13T04:41:31.275Z,9.77
2022-10-13T04:42:03.404Z,9.77
2022-10-13T04:42:34.304Z,9.77
2022-10-13T04:42:51.467Z,9.77
2022-10-13T04:43:23.052Z,9.77
2022-10-13T04:43:40.161Z,9.77
2022-10-13T04:44:11.234Z,9.77
2022-10-13T04:44:34.469Z,9.77
2022-10-13T04:45:04.007Z,9.77
2022-10-13T04:45:31.432Z,9.88
2022-10-13T04:46:03.319Z,9.88
2022-10-13T04:46:34.644Z,9.88
2022-10-13T04:46:51.503Z,9.88
2022-10-13T04:47:23.100Z,9.88
2022-10-13T04:47:40.740Z,9.88
2022-10-13T04:48:11.183Z,9.88
2022-10-13T04:48:34.310Z,9.88
2022-10-13T04:48:59.080Z,9.88
2022-10-13T04:49:37.078Z,9.88
2022-10-13T04:50:03.430Z,9.88
2022-10-13T04:50:34.295Z,9.88
2022-10-13T04:51:06.432Z,9.88
2022-10-13T04:51:22.882Z,9.88
2022-10-13T04:51:39.976Z,9.88
2022-10-13T04:52:11.434Z,9.88
2022-10-13T04:52:34.357Z,9.88
2022-10-13T04:52:58.958Z,9.61
2022-10-13T04:53:31.193Z,9.61
2022-10-13T04:54:03.306Z,9.61
2022-10-13T04:54:34.408Z,9.61
2022-10-13T04:55:06.383Z,9.77
2022-10-13T04:55:23.739Z,9.61
2022-10-13T04:55:40.972Z,9.61
2022-10-13T04:56:16.362Z,9.61
2022-10-13T04:56:34.595Z,9.61
2022-10-13T04:56:58.911Z,9.61
2022-10-13T04:57:31.370Z,9.61
2022-10-13T04:58:03.370Z,9.61
2022-10-13T04:58:34.911Z,9.61
2022-10-13T04:59:07.059Z,9.61
2022-10-13T04:59:34.329Z,9.61
2022-10-13T04:59:55.017Z,9.61
2022-10-13T05:00:27.858Z,9.61
2022-10-13T05:00:59.163Z,9.61
2022-10-13T05:01:31.873Z,9.61
2022-10-13T05:02:03.348Z,9.61
2022-10-13T05:02:34.318Z,9.61
2022-10-13T05:02:51.371Z,9.61
2022-10-13T05:03:22.993Z,9.61
2022-10-13T05:03:40.285Z,9.61
2022-10-13T05:04:11.223Z,9.61
2022-10-13T05:04:39.719Z,9.61
2022-10-13T05:04:58.982Z,9.72
2022-10-13T05:05:32.116Z,9.72
2022-10-13T05:06:03.274Z,9.72
2022-10-13T05:06:34.601Z,9.72
2022-10-13T05:07:16.475Z,9.72
2022-10-13T05:07:28.150Z,9.72
2022-10-13T05:07:40.290Z,9.72
2022-10-13T05:08:11.255Z,9.72
2022-10-13T05:08:34.288Z,9.72
2022-10-13T05:08:58.932Z,9.72
2022-10-13T05:09:31.289Z,9.61
2022-10-13T05:10:03.304Z,9.61
2022-10-13T05:10:34.977Z,9.61
2022-10-13T05:11:07.042Z,9.72
2022-10-13T05:11:34.506Z,9.72
2022-10-13T05:11:55.064Z,9.72
2022-10-13T05:12:27.000Z,9.72
2022-10-13T05:13:04.067Z,9.72
2022-10-13T05:13:31.214Z,9.61
2022-10-13T05:14:03.331Z,9.61
2022-10-13T05:14:34.451Z,9.61
2022-10-13T05:14:51.022Z,9.61
2022-10-13T05:15:23.359Z,9.61
2022-10-13T05:15:41.453Z,9.61
2022-10-13T05:16:11.208Z,9.61
2022-10-13T05:16:34.331Z,9.61
2022-10-13T05:16:58.999Z,9.61
2022-10-13T05:17:35.024Z,9.61
2022-10-13T05:18:03.566Z,9.61
2022-10-13T05:18:34.468Z,9.61
2022-10-13T05:18:51.222Z,9.61
2022-10-13T05:19:23.113Z,9.61
2022-10-13T05:19:40.106Z,9.61
2022-10-13T05:20:11.213Z,9.61
2022-10-13T05:20:34.439Z,9.61
2022-10-13T05:20:59.011Z,9.50
2022-10-13T05:21:31.196Z,9.50
2022-10-13T05:22:03.310Z,9.50
2022-10-13T05:22:34.442Z,9.50
2022-10-13T05:22:51.219Z,9.50
2022-10-13T05:23:23.211Z,9.50
2022-10-13T05:23:40.235Z,9.50
2022-10-13T05:24:15.290Z,9.50
2022-10-13T05:24:34.386Z,9.50
2022-10-13T05:24:59.046Z,9.50
2022-10-13T05:25:33.778Z,9.50
2022-10-13T05:26:03.903Z,9.50
2022-10-13T05:26:34.838Z,9.50
2022-10-13T05:27:07.494Z,9.61
2022-10-13T05:27:34.458Z,9.61
2022-10-13T05:27:54.989Z,9.61
2022-10-13T05:28:27.046Z,9.61
2022-10-13T05:28:58.787Z,9.61
2022-10-13T05:29:31.181Z,9.61
2022-10-13T05:30:03.386Z,9.61
2022-10-13T05:30:34.569Z,9.61
2022-10-13T05:31:06.417Z,9.61
2022-10-13T05:31:23.536Z,9.61
2022-10-13T05:31:40.995Z,9.61
2022-10-13T05:32:11.347Z,9.61
2022-10-13T05:32:34.524Z,9.61
2022-10-13T05:32:59.106Z,9.61
2022-10-13T05:33:31.263Z,9.61
2022-10-13T05:34:03.259Z,9.61
2022-10-13T05:34:34.812Z,9.61
2022-10-13T05:35:07.019Z,9.61
2022-10-13T05:35:34.320Z,9.61
2022-10-13T05:35:55.026Z,9.61
2022-10-13T05:36:27.782Z,9.61
2022-10-13T05:36:59.152Z,9.61
2022-10-13T05:37:31.423Z,9.61
2022-10-13T05:38:03.420Z,9.61
2022-10-13T05:38:34.405Z,9.61
2022-10-13T05:39:06.392Z,9.61
2022-10-13T05:39:23.344Z,9.61
2022-10-13T05:39:40.665Z,9.61
2022-10-13T05:40:11.180Z,9.61
2022-10-13T05:40:34.274Z,9.61
2022-10-13T05:41:04.014Z,9.61
2022-10-13T05:41:31.883Z,9.61
2022-10-13T05:42:03.307Z,9.61
2022-10-13T05:42:34.535Z,9.61
2022-10-13T05:43:06.377Z,9.61
2022-10-13T05:43:22.989Z,9.61
2022-10-13T05:43:40.257Z,9.61
2022-10-13T05:44:10.965Z,9.61
2022-10-13T05:44:34.366Z,9.61
2022-10-13T05:44:58.998Z,9.61
2022-10-13T05:45:31.307Z,9.72
2022-10-13T05:46:03.282Z,9.72
2022-10-13T05:46:40.035Z,9.72
2022-10-13T05:47:07.779Z,9.72
2022-10-13T05:47:34.557Z,9.50
2022-10-13T05:47:54.977Z,9.50
2022-10-13T05:48:26.946Z,9.50
2022-10-13T05:48:59.063Z,9.50
2022-10-13T05:49:31.138Z,9.61
2022-10-13T05:50:03.267Z,9.61
2022-10-13T05:50:34.297Z,9.61
2022-10-13T05:51:06.533Z,9.61
2022-10-13T05:51:22.914Z,9.61
2022-10-13T05:51:40.724Z,9.61
2022-10-13T05:52:16.097Z,9.61
2022-10-13T05:52:34.454Z,9.61
2022-10-13T05:52:59.077Z,9.72
2022-10-13T05:53:31.373Z,9.72
2022-10-13T05:54:03.679Z,9.72
2022-10-13T05:54:34.911Z,9.72
2022-10-13T05:55:07.238Z,9.72
2022-10-13T05:55:34.542Z,9.72
2022-10-13T05:55:55.335Z,9.77
2022-10-13T05:56:27.472Z,9.77
2022-10-13T05:56:59.091Z,9.77
2022-10-13T05:57:31.389Z,9.77
2022-10-13T05:58:03.552Z,9.77
2022-10-13T05:58:34.640Z,9.77
2022-10-13T05:58:51.084Z,9.61
2022-10-13T05:59:26.966Z,9.61
2022-10-13T05:59:40.321Z,9.61
2022-10-13T06:00:12.048Z,9.50
2022-10-13T06:00:34.720Z,9.50
2022-10-13T06:00:59.203Z,9.50
2022-10-13T06:01:31.472Z,9.50
2022-10-13T06:02:03.535Z,9.50
2022-10-13T06:02:34.607Z,9.50
2022-10-13T06:02:50.884Z,9.50
2022-10-13T06:03:28.206Z,9.50
2022-10-13T06:03:40.398Z,9.50
2022-10-13T06:04:11.529Z,9.50
2022-10-13T06:04:35.073Z,9.50
2022-10-13T06:04:59.149Z,9.72
2022-10-13T06:05:31.546Z,9.61
2022-10-13T06:06:03.571Z,9.61